createdAt,value
2018-02-10T00:00:37.961Z,1003.99
2018-02-10T00:01:18.388Z,1004
2018-02-10T00:01:58.739Z,1003.97
2018-02-10T00:02:39.114Z,1004.01
2018-02-10T00:03:19.537Z,1004
2018-02-10T00:03:59.911Z,1004.01
2018-02-10T00:04:40.257Z,1004.02
2018-02-10T00:05:20.649Z,1003.98
2018-02-10T00:06:01.056Z,1003.97
2018-02-10T00:06:41.444Z,1003.97
2018-02-10T00:07:21.834Z,1004.02
2018-02-10T00:08:02.221Z,1004.02
2018-02-10T00:08:42.613Z,1004.03
2018-02-10T00:09:23.027Z,1004.01
2018-02-10T00:10:03.454Z,1004.02
2018-02-10T00:10:43.905Z,1004.03
2018-02-10T00:11:24.270Z,1004.05
2018-02-10T00:13:16.598Z,1004.03
2018-02-10T00:13:57.002Z,1004.05
2018-02-10T00:14:37.430Z,1004.06
2018-02-10T00:15:17.905Z,1004.11
2018-02-10T00:15:58.309Z,1004.1
2018-02-10T00:16:38.714Z,1004.1
2018-02-10T00:17:19.100Z,1004.09
2018-02-10T00:17:59.519Z,1004.07
2018-02-10T00:20:11.984Z,1004.1
2018-02-10T00:20:52.966Z,1004.12
2018-02-10T00:21:33.382Z,1004.15
2018-02-10T00:22:13.754Z,1004.12
2018-02-10T00:24:41.393Z,1004.09
2018-02-10T00:25:21.892Z,1004.11
2018-02-10T00:26:02.304Z,1004.1
2018-02-10T00:26:42.725Z,1004.13
2018-02-10T00:27:23.113Z,1004.16
2018-02-10T00:28:03.509Z,1004.12
2018-02-10T00:28:43.904Z,1004.14
2018-02-10T00:29:24.306Z,1004.11
2018-02-10T00:30:04.707Z,1004.09
2018-02-10T00:30:45.094Z,1004.16
2018-02-10T00:31:25.492Z,1004.14
2018-02-10T00:33:43.159Z,1004.16
2018-02-10T00:34:23.572Z,1004.19
2018-02-10T00:35:03.990Z,1004.16
2018-02-10T00:35:44.402Z,1004.16
2018-02-10T00:36:24.822Z,1004.17
2018-02-10T00:37:05.244Z,1004.14
2018-02-10T00:39:03.634Z,1004.18
2018-02-10T00:39:44.216Z,1004.21
2018-02-10T00:40:24.627Z,1004.18
2018-02-10T00:41:05.012Z,1004.16
2018-02-10T00:42:57.518Z,1004.17
2018-02-10T00:43:37.910Z,1004.19
2018-02-10T00:44:19.510Z,1004.23
2018-02-10T00:44:59.919Z,1004.21
2018-02-10T00:45:40.302Z,1004.17
2018-02-10T00:46:20.703Z,1004.16
2018-02-10T00:47:01.088Z,1004.16
2018-02-10T00:47:41.487Z,1004.18
2018-02-10T00:48:21.849Z,1004.2
2018-02-10T00:49:02.221Z,1004.18
2018-02-10T00:49:42.627Z,1004.25
2018-02-10T00:50:23.025Z,1004.22
2018-02-10T00:51:03.399Z,1004.25
2018-02-10T00:51:43.798Z,1004.24
2018-02-10T00:53:41.262Z,1004.27
2018-02-10T00:54:21.638Z,1004.24
2018-02-10T00:55:02.010Z,1004.25
2018-02-10T00:55:42.432Z,1004.28
2018-02-10T00:56:22.826Z,1004.23
2018-02-10T00:57:03.222Z,1004.25
2018-02-10T00:57:43.625Z,1004.24
2018-02-10T00:58:23.999Z,1004.27
2018-02-10T00:59:04.386Z,1004.25
2018-02-10T00:59:44.806Z,1004.27
2018-02-10T01:00:25.193Z,1004.23
2018-02-10T01:01:05.576Z,1004.28
2018-02-10T01:01:45.953Z,1004.23
2018-02-10T01:02:26.327Z,1004.27
2018-02-10T01:03:06.755Z,1004.25
2018-02-10T01:05:34.431Z,1004.18
2018-02-10T01:06:15.269Z,1004.21
2018-02-10T01:06:55.521Z,1004.22
2018-02-10T01:07:35.931Z,1004.25
2018-02-10T01:08:16.350Z,1004.23
2018-02-10T01:08:56.724Z,1004.2
2018-02-10T01:09:37.120Z,1004.26
2018-02-10T01:10:17.536Z,1004.27
2018-02-10T01:10:57.912Z,1004.29
2018-02-10T01:11:38.318Z,1004.26
2018-02-10T01:12:18.682Z,1004.28
2018-02-10T01:12:59.082Z,1004.25
2018-02-10T01:13:39.448Z,1004.29
2018-02-10T01:14:19.829Z,1004.28
2018-02-10T01:16:32.308Z,1004.3
2018-02-10T01:17:12.718Z,1004.27
2018-02-10T01:17:53.120Z,1004.32
2018-02-10T01:18:33.487Z,1004.3
2018-02-10T01:19:13.880Z,1004.31
2018-02-10T01:19:54.320Z,1004.3
2018-02-10T01:20:34.711Z,1004.32
2018-02-10T01:21:15.081Z,1004.31
2018-02-10T01:21:55.464Z,1004.33
2018-02-10T01:22:35.858Z,1004.31
2018-02-10T01:24:48.310Z,1004.33
2018-02-10T01:25:28.723Z,1004.39
2018-02-10T01:26:09.163Z,1004.35
2018-02-10T01:26:49.585Z,1004.39
2018-02-10T01:27:29.955Z,1004.39
2018-02-10T01:28:10.384Z,1004.32
2018-02-10T01:28:50.784Z,1004.37
2018-02-10T01:29:31.202Z,1004.34
2018-02-10T01:30:11.595Z,1004.35
2018-02-10T01:30:51.981Z,1004.37
2018-02-10T01:31:32.378Z,1004.34
2018-02-10T01:32:12.774Z,1004.34
2018-02-10T01:32:53.178Z,1004.36
2018-02-10T01:33:33.571Z,1004.33
2018-02-10T01:34:13.950Z,1004.31
2018-02-10T01:34:54.334Z,1004.34
2018-02-10T01:35:34.736Z,1004.35
2018-02-10T01:36:15.094Z,1004.32
2018-02-10T01:36:55.478Z,1004.33
2018-02-10T01:37:35.871Z,1004.34
2018-02-10T01:38:16.271Z,1004.36
2018-02-10T01:38:56.693Z,1004.34
2018-02-10T01:39:37.103Z,1004.38
2018-02-10T01:40:17.500Z,1004.34
2018-02-10T01:40:57.905Z,1004.37
2018-02-10T01:41:38.313Z,1004.35
2018-02-10T01:42:18.720Z,1004.36
2018-02-10T01:42:59.156Z,1004.38
2018-02-10T01:43:39.554Z,1004.41
2018-02-10T01:44:19.959Z,1004.35
2018-02-10T01:45:00.357Z,1004.35
2018-02-10T01:45:40.781Z,1004.36
2018-02-10T01:46:21.151Z,1004.37
2018-02-10T01:47:01.577Z,1004.38
2018-02-10T01:47:41.950Z,1004.36
2018-02-10T01:48:22.361Z,1004.32
2018-02-10T01:49:02.750Z,1004.35
2018-02-10T01:49:43.147Z,1004.34
2018-02-10T01:50:23.557Z,1004.33
2018-02-10T01:51:03.926Z,1004.32
2018-02-10T01:51:44.349Z,1004.3
2018-02-10T01:52:24.737Z,1004.28
2018-02-10T01:53:05.166Z,1004.3
2018-02-10T01:53:45.538Z,1004.33
2018-02-10T01:54:25.929Z,1004.31
2018-02-10T01:55:06.363Z,1004.32
2018-02-10T01:55:46.747Z,1004.34
2018-02-10T01:56:27.104Z,1004.33
2018-02-10T01:57:07.483Z,1004.31
2018-02-10T01:57:47.863Z,1004.33
2018-02-10T01:58:28.242Z,1004.33
2018-02-10T01:59:08.648Z,1004.33
2018-02-10T01:59:49.045Z,1004.32
2018-02-10T02:00:29.448Z,1004.35
2018-02-10T02:01:09.827Z,1004.38
2018-02-10T02:01:50.211Z,1004.39
2018-02-10T02:02:30.619Z,1004.4
2018-02-10T02:03:10.996Z,1004.37
2018-02-10T02:03:51.394Z,1004.4
2018-02-10T02:04:31.789Z,1004.38
2018-02-10T02:05:12.194Z,1004.38
2018-02-10T02:05:52.579Z,1004.38
2018-02-10T02:06:32.998Z,1004.37
2018-02-10T02:07:13.384Z,1004.36
2018-02-10T02:07:53.783Z,1004.38
2018-02-10T02:08:34.190Z,1004.38
2018-02-10T02:09:14.595Z,1004.36
2018-02-10T02:09:54.983Z,1004.4
2018-02-10T02:12:22.642Z,1004.38
2018-02-10T02:13:03.042Z,1004.42
2018-02-10T02:13:43.464Z,1004.4
2018-02-10T02:14:23.886Z,1004.37
2018-02-10T02:15:04.309Z,1004.39
2018-02-10T02:15:44.730Z,1004.42
2018-02-10T02:16:25.133Z,1004.37
2018-02-10T02:17:05.546Z,1004.38
2018-02-10T02:17:45.938Z,1004.38
2018-02-10T02:18:26.311Z,1004.36
2018-02-10T02:19:06.705Z,1004.34
2018-02-10T02:19:47.106Z,1004.34
2018-02-10T02:20:27.505Z,1004.35
2018-02-10T02:21:07.869Z,1004.29
2018-02-10T02:21:48.285Z,1004.31
2018-02-10T02:22:28.644Z,1004.33
2018-02-10T02:23:09.062Z,1004.33
2018-02-10T02:23:49.426Z,1004.32
2018-02-10T02:24:29.833Z,1004.34
2018-02-10T02:25:10.229Z,1004.31
2018-02-10T02:25:50.622Z,1004.33
2018-02-10T02:26:31.020Z,1004.32
2018-02-10T02:27:11.408Z,1004.33
2018-02-10T02:27:51.795Z,1004.34
2018-02-10T02:28:32.204Z,1004.37
2018-02-10T02:29:12.563Z,1004.37
2018-02-10T02:29:52.959Z,1004.38
2018-02-10T02:32:10.479Z,1004.41
2018-02-10T02:32:50.876Z,1004.41
2018-02-10T02:33:31.296Z,1004.39
2018-02-10T02:34:12.005Z,1004.42
2018-02-10T02:36:24.442Z,1004.41
2018-02-10T02:37:04.865Z,1004.36
2018-02-10T02:37:45.267Z,1004.38
2018-02-10T02:38:25.645Z,1004.42
2018-02-10T02:39:06.042Z,1004.34
2018-02-10T02:39:46.440Z,1004.38
2018-02-10T02:40:26.852Z,1004.37
2018-02-10T02:41:07.257Z,1004.37
2018-02-10T02:41:47.681Z,1004.39
2018-02-10T02:42:28.089Z,1004.35
2018-02-10T02:43:08.507Z,1004.35
2018-02-10T02:43:48.912Z,1004.38
2018-02-10T02:44:29.315Z,1004.33
2018-02-10T02:45:09.715Z,1004.39
2018-02-10T02:45:50.115Z,1004.37
2018-02-10T02:46:30.495Z,1004.34
2018-02-10T02:47:10.891Z,1004.36
2018-02-10T02:47:51.270Z,1004.34
2018-02-10T02:48:31.659Z,1004.33
2018-02-10T02:49:12.050Z,1004.34
2018-02-10T02:51:24.549Z,1004.38
2018-02-10T02:52:04.963Z,1004.38
2018-02-10T02:52:45.398Z,1004.38
2018-02-10T02:53:25.848Z,1004.39
2018-02-10T02:54:06.248Z,1004.39
2018-02-10T02:54:46.659Z,1004.44
2018-02-10T02:57:14.325Z,1004.44
2018-02-10T02:57:54.755Z,1004.48
2018-02-10T02:58:35.171Z,1004.45
2018-02-10T02:59:15.598Z,1004.46
2018-02-10T02:59:56.018Z,1004.49
2018-02-10T03:00:36.447Z,1004.47
2018-02-10T03:01:16.829Z,1004.49
2018-02-10T03:01:57.215Z,1004.5
2018-02-10T03:02:37.646Z,1004.51
2018-02-10T03:03:18.067Z,1004.52
2018-02-10T03:03:58.473Z,1004.54
2018-02-10T03:04:38.870Z,1004.5
2018-02-10T03:05:19.245Z,1004.5
2018-02-10T03:05:59.633Z,1004.53
2018-02-10T03:06:40.019Z,1004.52
2018-02-10T03:07:20.423Z,1004.54
2018-02-10T03:08:00.815Z,1004.53
2018-02-10T03:08:41.209Z,1004.54
2018-02-10T03:09:21.586Z,1004.56
2018-02-10T03:10:01.978Z,1004.62
2018-02-10T03:10:42.347Z,1004.57
2018-02-10T03:11:22.731Z,1004.59
2018-02-10T03:12:03.118Z,1004.6
2018-02-10T03:12:43.524Z,1004.56
2018-02-10T03:13:23.963Z,1004.58
2018-02-10T03:14:04.357Z,1004.59
2018-02-10T03:16:32.024Z,1004.55
2018-02-10T03:17:12.459Z,1004.54
2018-02-10T03:17:52.883Z,1004.54
2018-02-10T03:18:33.316Z,1004.59
2018-02-10T03:19:13.739Z,1004.57
2018-02-10T03:19:54.142Z,1004.64
2018-02-10T03:20:34.551Z,1004.61
2018-02-10T03:21:14.931Z,1004.67
2018-02-10T03:21:55.342Z,1004.66
2018-02-10T03:22:35.741Z,1004.66
2018-02-10T03:23:16.150Z,1004.63
2018-02-10T03:23:56.547Z,1004.66
2018-02-10T03:24:36.947Z,1004.69
2018-02-10T03:25:17.332Z,1004.67
2018-02-10T03:25:57.729Z,1004.72
2018-02-10T03:26:38.109Z,1004.72
2018-02-10T03:27:18.490Z,1004.72
2018-02-10T03:27:58.897Z,1004.74
2018-02-10T03:28:39.274Z,1004.75
2018-02-10T03:29:19.666Z,1004.76
2018-02-10T03:30:00.098Z,1004.79
2018-02-10T03:30:40.436Z,1004.74
2018-02-10T03:31:20.831Z,1004.8
2018-02-10T03:32:01.271Z,1004.78
2018-02-10T03:32:41.675Z,1004.79
2018-02-10T03:33:22.038Z,1004.83
2018-02-10T03:34:02.425Z,1004.79
2018-02-10T03:34:42.808Z,1004.84
2018-02-10T03:35:23.230Z,1004.85
2018-02-10T03:36:03.638Z,1004.83
2018-02-10T03:36:44.065Z,1004.83
2018-02-10T03:37:24.485Z,1004.81
2018-02-10T03:38:04.864Z,1004.81
2018-02-10T03:38:45.277Z,1004.84
2018-02-10T03:39:25.690Z,1004.8
2018-02-10T03:40:06.081Z,1004.83
2018-02-10T03:40:46.487Z,1004.84
2018-02-10T03:41:26.873Z,1004.83
2018-02-10T03:42:07.274Z,1004.86
2018-02-10T03:42:47.683Z,1004.84
2018-02-10T03:43:28.113Z,1004.81
2018-02-10T03:44:08.535Z,1004.8
2018-02-10T03:44:48.910Z,1004.79
2018-02-10T03:45:29.284Z,1004.83
2018-02-10T03:46:09.733Z,1004.81
2018-02-10T03:46:50.131Z,1004.8
2018-02-10T03:47:30.561Z,1004.79
2018-02-10T03:48:10.918Z,1004.8
2018-02-10T03:48:51.338Z,1004.79
2018-02-10T03:49:31.756Z,1004.81
2018-02-10T03:50:12.165Z,1004.79
2018-02-10T03:50:52.573Z,1004.82
2018-02-10T03:51:32.990Z,1004.81
2018-02-10T03:52:13.418Z,1004.8
2018-02-10T03:52:53.845Z,1004.82
2018-02-10T03:53:34.251Z,1004.85
2018-02-10T03:54:14.671Z,1004.84
2018-02-10T03:54:55.092Z,1004.84
2018-02-10T03:55:35.512Z,1004.87
2018-02-10T03:56:15.925Z,1004.87
2018-02-10T03:56:56.335Z,1004.87
2018-02-10T03:57:36.731Z,1004.83
2018-02-10T03:58:17.145Z,1004.89
2018-02-10T03:58:57.546Z,1004.92
2018-02-10T03:59:37.956Z,1004.91
2018-02-10T04:00:18.372Z,1004.94
2018-02-10T04:00:58.792Z,1004.96
2018-02-10T04:01:39.206Z,1004.95
2018-02-10T04:02:19.583Z,1004.93
2018-02-10T04:02:59.964Z,1004.96
2018-02-10T04:43:21.775Z,1005.21
2018-02-10T04:44:02.100Z,1005.22
2018-02-10T04:44:42.495Z,1005.22
2018-02-10T04:45:22.889Z,1005.21
2018-02-10T04:46:03.290Z,1005.23
2018-02-10T04:46:43.707Z,1005.19
2018-02-10T04:47:24.081Z,1005.24
2018-02-10T04:48:04.562Z,1005.22
2018-02-10T04:48:44.876Z,1005.27
2018-02-10T04:49:25.297Z,1005.28
2018-02-10T04:51:37.804Z,1005.29
2018-02-10T04:53:59.128Z,1005.33
2018-02-10T04:54:40.993Z,1005.31
2018-02-10T04:55:21.380Z,1005.31
2018-02-10T04:56:01.785Z,1005.32
2018-02-10T04:56:42.200Z,1005.36
2018-02-10T04:57:22.586Z,1005.35
2018-02-10T04:59:50.284Z,1005.37
2018-02-10T05:00:30.637Z,1005.39
2018-02-10T05:01:11.031Z,1005.39
2018-02-10T05:01:51.420Z,1005.36
2018-02-10T05:02:31.817Z,1005.37
2018-02-10T05:03:12.192Z,1005.35
2018-02-10T05:03:52.578Z,1005.34
2018-02-10T05:05:44.901Z,1005.36
2018-02-10T05:06:25.301Z,1005.37
2018-02-10T05:07:05.742Z,1005.4
2018-02-10T05:07:46.320Z,1005.39
2018-02-10T05:08:26.712Z,1005.41
2018-02-10T05:09:07.092Z,1005.43
2018-02-10T05:09:47.516Z,1005.45
2018-02-10T05:10:27.933Z,1005.41
2018-02-10T05:11:08.357Z,1005.45
2018-02-10T05:11:48.776Z,1005.39
2018-02-10T05:12:29.203Z,1005.43
2018-02-10T05:13:09.626Z,1005.46
2018-02-10T05:13:50.055Z,1005.46
2018-02-10T05:14:30.447Z,1005.43
2018-02-10T05:15:10.819Z,1005.44
2018-02-10T05:15:51.196Z,1005.49
2018-02-10T05:16:31.591Z,1005.46
2018-02-10T05:17:11.999Z,1005.49
2018-02-10T05:17:52.419Z,1005.47
2018-02-10T05:18:32.813Z,1005.47
2018-02-10T05:19:13.210Z,1005.48
2018-02-10T05:19:53.618Z,1005.48
2018-02-10T05:20:34.016Z,1005.48
2018-02-10T05:22:26.375Z,1005.46
2018-02-10T05:23:06.803Z,1005.49
2018-02-10T05:23:47.196Z,1005.46
2018-02-10T05:24:27.621Z,1005.51
2018-02-10T05:25:08.048Z,1005.49
2018-02-10T05:25:48.450Z,1005.47
2018-02-10T05:26:28.913Z,1005.47
2018-02-10T05:27:09.327Z,1005.51
2018-02-10T05:27:49.761Z,1005.53
2018-02-10T05:28:30.162Z,1005.51
2018-02-10T05:29:10.553Z,1005.51
2018-02-10T05:29:50.975Z,1005.53
2018-02-10T05:30:31.399Z,1005.53
2018-02-10T05:31:11.802Z,1005.5
2018-02-10T05:31:52.235Z,1005.54
2018-02-10T05:32:32.656Z,1005.46
2018-02-10T05:33:13.053Z,1005.48
2018-02-10T05:33:53.485Z,1005.49
2018-02-10T05:34:33.901Z,1005.48
2018-02-10T05:35:14.328Z,1005.47
2018-02-10T05:35:54.743Z,1005.47
2018-02-10T05:36:35.163Z,1005.45
2018-02-10T05:37:15.632Z,1005.49
2018-02-10T05:37:56.005Z,1005.45
2018-02-10T05:38:36.431Z,1005.48
2018-02-10T05:39:16.856Z,1005.47
2018-02-10T05:39:57.252Z,1005.47
2018-02-10T05:40:37.635Z,1005.47
2018-02-10T05:41:18.033Z,1005.44
2018-02-10T05:41:58.444Z,1005.43
2018-02-10T05:42:38.810Z,1005.48
2018-02-10T05:43:19.189Z,1005.48
2018-02-10T05:43:59.563Z,1005.47
2018-02-10T05:44:39.988Z,1005.48
2018-02-10T05:45:20.369Z,1005.5
2018-02-10T05:46:00.749Z,1005.48
2018-02-10T05:48:18.282Z,1005.48
2018-02-10T05:48:58.711Z,1005.49
2018-02-10T05:49:39.301Z,1005.5
2018-02-10T05:50:19.530Z,1005.5
2018-02-10T05:50:59.929Z,1005.49
2018-02-10T05:51:40.317Z,1005.49
2018-02-10T05:52:20.705Z,1005.48
2018-02-10T05:53:01.130Z,1005.47
2018-02-10T05:53:41.519Z,1005.46
2018-02-10T05:54:21.961Z,1005.46
2018-02-10T05:55:02.302Z,1005.47
2018-02-10T05:55:42.681Z,1005.49
2018-02-10T05:56:23.051Z,1005.5
2018-02-10T05:57:03.433Z,1005.49
2018-02-10T05:57:43.827Z,1005.49
2018-02-10T05:58:24.218Z,1005.51
2018-02-10T05:59:04.605Z,1005.52
2018-02-10T05:59:44.987Z,1005.5
2018-02-10T06:00:25.367Z,1005.55
2018-02-10T06:01:05.745Z,1005.57
2018-02-10T06:01:46.143Z,1005.55
2018-02-10T06:02:26.526Z,1005.6
2018-02-10T06:03:06.886Z,1005.55
2018-02-10T06:03:47.274Z,1005.57
2018-02-10T06:04:27.702Z,1005.57
2018-02-10T06:05:08.062Z,1005.6
2018-02-10T06:05:48.476Z,1005.58
2018-02-10T06:06:28.885Z,1005.59
2018-02-10T06:07:09.294Z,1005.59
2018-02-10T06:07:49.689Z,1005.55
2018-02-10T06:08:30.073Z,1005.52
2018-02-10T06:09:10.499Z,1005.55
2018-02-10T06:09:50.930Z,1005.53
2018-02-10T06:10:31.348Z,1005.52
2018-02-10T06:11:11.770Z,1005.51
2018-02-10T06:11:52.130Z,1005.51
2018-02-10T06:12:32.502Z,1005.49
2018-02-10T06:14:50.101Z,1005.48
2018-02-10T06:15:30.458Z,1005.46
2018-02-10T06:16:10.878Z,1005.49
2018-02-10T06:16:51.760Z,1005.45
2018-02-10T06:17:31.848Z,1005.49
2018-02-10T06:18:12.265Z,1005.46
2018-02-10T06:18:52.684Z,1005.42
2018-02-10T06:19:33.101Z,1005.43
2018-02-10T06:20:13.495Z,1005.45
2018-02-10T06:20:53.899Z,1005.44
2018-02-10T06:21:34.303Z,1005.43
2018-02-10T06:22:14.689Z,1005.44
2018-02-10T06:22:55.081Z,1005.48
2018-02-10T06:23:35.467Z,1005.46
2018-02-10T06:24:15.862Z,1005.46
2018-02-10T06:24:56.232Z,1005.47
2018-02-10T06:25:36.611Z,1005.45
2018-02-10T06:26:17.007Z,1005.47
2018-02-10T06:26:57.382Z,1005.48
2018-02-10T06:27:37.777Z,1005.43
2018-02-10T06:28:18.183Z,1005.44
2018-02-10T06:28:58.560Z,1005.43
2018-02-10T06:29:38.957Z,1005.48
2018-02-10T06:30:19.338Z,1005.45
2018-02-10T06:30:59.729Z,1005.46
2018-02-10T06:31:40.130Z,1005.47
2018-02-10T06:32:20.518Z,1005.46
2018-02-10T06:33:00.897Z,1005.49
2018-02-10T06:33:41.316Z,1005.49
2018-02-10T06:34:21.755Z,1005.49
2018-02-10T06:35:02.135Z,1005.52
2018-02-10T06:35:42.539Z,1005.48
2018-02-10T06:36:22.924Z,1005.54
2018-02-10T06:37:03.325Z,1005.51
2018-02-10T06:37:43.737Z,1005.5
2018-02-10T06:40:01.296Z,1005.48
2018-02-10T06:40:41.730Z,1005.5
2018-02-10T06:41:22.148Z,1005.47
2018-02-10T06:42:02.557Z,1005.48
2018-02-10T06:42:42.977Z,1005.51
2018-02-10T06:43:23.391Z,1005.49
2018-02-10T06:44:03.794Z,1005.5
2018-02-10T06:44:44.201Z,1005.46
2018-02-10T06:45:24.659Z,1005.48
2018-02-10T06:46:05.062Z,1005.45
2018-02-10T06:46:45.432Z,1005.47
2018-02-10T06:48:43.026Z,1005.47
2018-02-10T06:49:23.594Z,1005.46
2018-02-10T06:50:04.010Z,1005.56
2018-02-10T06:50:44.432Z,1005.49
2018-02-10T06:51:24.849Z,1005.53
2018-02-10T06:52:05.240Z,1005.54
2018-02-10T06:52:45.667Z,1005.55
2018-02-10T06:53:26.050Z,1005.55
2018-02-10T06:54:06.455Z,1005.58
2018-02-10T06:54:46.854Z,1005.61
2018-02-10T06:55:27.242Z,1005.61
2018-02-10T06:56:07.625Z,1005.64
2018-02-10T06:58:35.279Z,1005.65
2018-02-10T06:59:15.884Z,1005.63
2018-02-10T06:59:56.256Z,1005.58
2018-02-10T07:00:36.676Z,1005.58
2018-02-10T07:01:17.090Z,1005.6
2018-02-10T07:01:57.480Z,1005.55
2018-02-10T07:02:37.904Z,1005.58
2018-02-10T07:03:18.321Z,1005.62
2018-02-10T07:03:58.725Z,1005.57
2018-02-10T07:04:39.143Z,1005.59
2018-02-10T07:05:19.522Z,1005.63
2018-02-10T07:05:59.926Z,1005.58
2018-02-10T07:06:40.366Z,1005.6
2018-02-10T07:07:20.762Z,1005.61
2018-02-10T07:08:01.183Z,1005.57
2018-02-10T07:08:41.592Z,1005.57
2018-02-10T07:09:21.967Z,1005.53
2018-02-10T07:10:02.367Z,1005.56
2018-02-10T07:10:42.750Z,1005.6
2018-02-10T07:11:23.171Z,1005.6
2018-02-10T07:12:03.581Z,1005.59
2018-02-10T07:12:44.002Z,1005.53
2018-02-10T07:13:24.413Z,1005.6
2018-02-10T07:14:04.819Z,1005.62
2018-02-10T07:14:45.228Z,1005.61
2018-02-10T07:15:25.603Z,1005.59
2018-02-10T07:16:05.993Z,1005.59
2018-02-10T07:16:46.426Z,1005.58
2018-02-10T07:17:26.830Z,1005.57
2018-02-10T07:18:07.261Z,1005.57
2018-02-10T07:18:47.668Z,1005.59
2018-02-10T07:19:28.053Z,1005.55
2018-02-10T07:20:08.473Z,1005.56
2018-02-10T07:20:48.905Z,1005.57
2018-02-10T07:21:29.330Z,1005.59
2018-02-10T07:22:09.737Z,1005.6
2018-02-10T07:22:50.172Z,1005.57
2018-02-10T07:23:30.560Z,1005.61
2018-02-10T07:24:10.945Z,1005.59
2018-02-10T07:24:51.326Z,1005.64
2018-02-10T07:25:31.732Z,1005.67
2018-02-10T07:26:12.137Z,1005.7
2018-02-10T07:28:39.916Z,1005.77
2018-02-10T07:29:21.053Z,1005.78
2018-02-10T07:30:01.445Z,1005.75
2018-02-10T07:30:41.858Z,1005.82
2018-02-10T07:31:22.253Z,1005.8
2018-02-10T07:32:02.667Z,1005.83
2018-02-10T07:32:43.090Z,1005.83
2018-02-10T07:33:23.461Z,1005.84
2018-02-10T07:34:03.852Z,1005.84
2018-02-10T07:34:44.265Z,1005.87
2018-02-10T07:35:24.668Z,1005.92
2018-02-10T07:36:05.070Z,1005.96
2018-02-10T07:36:45.432Z,1005.89
2018-02-10T07:37:25.820Z,1005.87
2018-02-10T07:38:06.196Z,1005.89
2018-02-10T07:38:46.605Z,1005.87
2018-02-10T07:39:27.003Z,1005.88
2018-02-10T07:40:07.398Z,1005.89
2018-02-10T07:40:47.797Z,1005.89
2018-02-10T07:41:28.206Z,1005.85
2018-02-10T07:42:08.581Z,1005.86
2018-02-10T07:42:49.008Z,1005.87
2018-02-10T07:43:29.443Z,1005.87
2018-02-10T07:44:09.866Z,1005.91
2018-02-10T07:44:50.276Z,1005.87
2018-02-10T07:45:30.698Z,1005.86
2018-02-10T07:46:11.123Z,1005.92
2018-02-10T07:46:51.539Z,1005.91
2018-02-10T07:47:31.939Z,1005.87
2018-02-10T07:48:12.351Z,1005.86
2018-02-10T07:48:52.797Z,1005.85
2018-02-10T07:49:33.210Z,1005.9
2018-02-10T07:50:13.624Z,1005.89
2018-02-10T07:50:54.035Z,1005.93
2018-02-10T07:51:34.418Z,1005.92
2018-02-10T07:52:14.849Z,1005.94
2018-02-10T07:52:55.285Z,1005.95
2018-02-10T07:53:35.704Z,1005.97
2018-02-10T07:54:16.114Z,1005.96
2018-02-10T07:54:56.550Z,1005.94
2018-02-10T07:55:36.968Z,1005.95
2018-02-10T07:56:17.361Z,1005.91
2018-02-10T07:56:57.789Z,1005.9
2018-02-10T07:57:38.197Z,1005.92
2018-02-10T07:58:18.623Z,1005.94
2018-02-10T07:58:59.011Z,1005.93
2018-02-10T07:59:39.401Z,1005.95
2018-02-10T08:00:19.810Z,1005.98
2018-02-10T08:01:00.200Z,1005.98
2018-02-10T08:01:40.589Z,1005.96
2018-02-10T08:02:21.004Z,1006
2018-02-10T08:03:01.408Z,1006.02
2018-02-10T08:03:41.794Z,1005.94
2018-02-10T08:04:22.187Z,1006.02
2018-02-10T08:05:02.609Z,1005.99
2018-02-10T08:05:43.015Z,1005.97
2018-02-10T08:06:23.441Z,1005.95
2018-02-10T08:07:03.879Z,1005.97
2018-02-10T08:07:44.261Z,1005.96
2018-02-10T08:09:41.643Z,1005.97
2018-02-10T08:10:22.045Z,1005.93
2018-02-10T08:11:02.453Z,1005.9
2018-02-10T08:11:42.901Z,1005.99
2018-02-10T08:12:23.509Z,1005.92
2018-02-10T08:13:03.919Z,1005.93
2018-02-10T08:13:44.346Z,1005.89
2018-02-10T08:14:24.757Z,1005.91
2018-02-10T08:15:05.173Z,1005.89
2018-02-10T08:15:45.585Z,1005.93
2018-02-10T08:16:26.004Z,1005.94
2018-02-10T08:17:06.387Z,1005.89
2018-02-10T08:17:46.805Z,1005.92
2018-02-10T08:18:27.185Z,1005.89
2018-02-10T08:19:07.531Z,1005.92
2018-02-10T08:19:47.922Z,1005.97
2018-02-10T08:20:28.343Z,1005.92
2018-02-10T08:21:08.745Z,1005.92
2018-02-10T08:21:49.139Z,1005.92
2018-02-10T08:22:29.522Z,1005.92
2018-02-10T08:23:09.932Z,1005.93
2018-02-10T08:23:50.363Z,1005.93
2018-02-10T08:24:30.775Z,1005.95
2018-02-10T08:25:11.180Z,1005.98
2018-02-10T08:25:52.007Z,1005.95
2018-02-10T08:26:32.372Z,1005.95
2018-02-10T08:27:12.777Z,1005.96
2018-02-10T08:27:53.172Z,1005.93
2018-02-10T08:28:33.557Z,1005.93
2018-02-10T08:29:13.962Z,1005.94
2018-02-10T08:29:54.355Z,1005.92
2018-02-10T08:30:34.737Z,1005.95
2018-02-10T08:31:15.138Z,1005.92
2018-02-10T08:31:55.536Z,1005.95
2018-02-10T08:32:35.933Z,1005.9
2018-02-10T08:33:16.305Z,1005.9
2018-02-10T08:33:56.690Z,1005.91
2018-02-10T08:34:37.089Z,1005.95
2018-02-10T08:35:17.473Z,1005.93
2018-02-10T08:35:57.916Z,1005.97
2018-02-10T08:36:38.252Z,1005.94
2018-02-10T08:37:18.637Z,1005.97
2018-02-10T08:37:59.046Z,1005.94
2018-02-10T08:38:39.462Z,1005.94
2018-02-10T08:39:19.869Z,1006.01
2018-02-10T08:40:00.291Z,1006
2018-02-10T08:40:40.715Z,1005.97
2018-02-10T08:41:21.140Z,1005.98
2018-02-10T08:42:01.563Z,1005.95
2018-02-10T08:42:41.976Z,1006
2018-02-10T08:43:22.394Z,1005.98
2018-02-10T08:44:02.867Z,1006
2018-02-10T08:44:43.210Z,1006.03
2018-02-10T08:45:23.682Z,1005.98
2018-02-10T08:46:04.037Z,1005.96
2018-02-10T08:46:44.439Z,1005.98
2018-02-10T08:47:24.845Z,1005.99
2018-02-10T08:48:05.271Z,1005.93
2018-02-10T08:48:45.692Z,1005.96
2018-02-10T08:49:26.099Z,1005.95
2018-02-10T08:50:06.534Z,1005.93
2018-02-10T08:50:46.947Z,1005.93
2018-02-10T08:51:27.322Z,1005.91
2018-02-10T08:52:07.723Z,1005.91
2018-02-10T08:52:48.113Z,1005.87
2018-02-10T08:53:29.059Z,1005.92
2018-02-10T08:54:09.196Z,1005.9
2018-02-10T08:54:49.630Z,1005.88
2018-02-10T08:57:07.168Z,1005.96
2018-02-10T08:57:47.537Z,1005.95
2018-02-10T08:58:27.966Z,1005.96
2018-02-10T08:59:08.354Z,1005.99
2018-02-10T08:59:48.799Z,1006.01
2018-02-10T09:00:29.221Z,1005.98
2018-02-10T09:01:09.598Z,1006
2018-02-10T09:01:50.002Z,1005.99
2018-02-10T09:02:30.484Z,1006.02
2018-02-10T09:03:10.909Z,1006
2018-02-10T09:03:51.326Z,1006.01
2018-02-10T09:04:31.720Z,1005.99
2018-02-10T09:05:12.099Z,1006
2018-02-10T09:07:24.944Z,1006.03
2018-02-10T09:08:08.540Z,1006.04
2018-02-10T09:10:07.270Z,1006.06
2018-02-10T09:10:49.989Z,1006.05
2018-02-10T09:11:30.411Z,1006.04
2018-02-10T09:12:10.829Z,1006.04
2018-02-10T09:12:51.250Z,1006.1
2018-02-10T09:13:31.672Z,1006.12
2018-02-10T09:14:12.088Z,1006.09
2018-02-10T09:14:52.506Z,1006.09
2018-02-10T09:15:32.920Z,1006.12
2018-02-10T09:16:13.344Z,1006.13
2018-02-10T09:16:53.720Z,1006.11
2018-02-10T09:17:34.121Z,1006.17
2018-02-10T09:18:14.554Z,1006.13
2018-02-10T09:18:54.967Z,1006.08
2018-02-10T09:19:35.390Z,1006.11
2018-02-10T09:20:15.798Z,1006.12
2018-02-10T09:20:56.214Z,1006.09
2018-02-10T09:21:36.636Z,1006.14
2018-02-10T09:22:17.124Z,1006.1
2018-02-10T09:22:57.489Z,1006.08
2018-02-10T09:23:37.890Z,1006.12
2018-02-10T09:24:18.322Z,1006.09
2018-02-10T09:24:58.669Z,1006.08
2018-02-10T09:25:39.079Z,1006.1
2018-02-10T09:26:19.491Z,1006.11
2018-02-10T09:26:59.905Z,1006.11
2018-02-10T09:27:40.324Z,1006.13
2018-02-10T09:28:20.702Z,1006.12
2018-02-10T09:29:01.107Z,1006.15
2018-02-10T09:29:41.498Z,1006.15
2018-02-10T09:31:59.142Z,1006.21
2018-02-10T09:32:41.036Z,1006.2
2018-02-10T09:33:21.443Z,1006.17
2018-02-10T09:34:01.844Z,1006.19
2018-02-10T09:34:42.273Z,1006.22
2018-02-10T09:35:22.649Z,1006.22
2018-02-10T09:36:03.041Z,1006.24
2018-02-10T09:36:43.470Z,1006.22
2018-02-10T09:37:23.857Z,1006.22
2018-02-10T09:38:04.293Z,1006.23
2018-02-10T09:38:44.712Z,1006.24
2018-02-10T09:39:25.126Z,1006.27
2018-02-10T09:40:05.549Z,1006.26